sensor_id;sensor_type;location;lat;lon;timestamp;P1;durP1;ratioP1;P2;durP2;ratioP2
142;SDS011;63667;49.046;8.468;2023-08-21T00:00:43;18.40;;;10.50;;
142;SDS011;63667;49.046;8.468;2023-08-21T00:03:10;24.23;;;11.10;;
142;SDS011;63667;49.046;8.468;2023-08-21T00:05:38;19.13;;;11.23;;
142;SDS011;63667;49.046;8.468;2023-08-21T00:08:05;21.00;;;10.73;;
142;SDS011;63667;49.046;8.468;2023-08-21T00:10:32;17.30;;;11.10;;
142;SDS011;63667;49.046;8.468;2023-08-21T00:13:00;19.23;;;11.50;;
142;SDS011;63667;49.046;8.468;2023-08-21T00:15:27;21.03;;;11.87;;
142;SDS011;63667;49.046;8.468;2023-08-21T00:17:54;19.13;;;12.20;;
142;SDS011;63667;49.046;8.468;2023-08-21T00:20:21;19.77;;;11.30;;
142;SDS011;63667;49.046;8.468;2023-08-21T00:22:48;17.83;;;11.00;;
142;SDS011;63667;49.046;8.468;2023-08-21T00:25:15;21.80;;;10.80;;
142;SDS011;63667;49.046;8.468;2023-08-21T00:27:42;18.27;;;11.40;;
142;SDS011;63667;49.046;8.468;2023-08-21T00:30:10;22.00;;;10.73;;
142;SDS011;63667;49.046;8.468;2023-08-21T00:32:41;17.23;;;10.10;;
142;SDS011;63667;49.046;8.468;2023-08-21T00:35:07;23.90;;;10.67;;
142;SDS011;63667;49.046;8.468;2023-08-21T00:37:35;22.77;;;11.30;;
142;SDS011;63667;49.046;8.468;2023-08-21T00:40:02;20.30;;;10.90;;
142;SDS011;63667;49.046;8.468;2023-08-21T00:42:30;20.97;;;11.50;;
142;SDS011;63667;49.046;8.468;2023-08-21T00:44:59;20.93;;;11.20;;
142;SDS011;63667;49.046;8.468;2023-08-21T00:47:27;20.73;;;11.70;;
142;SDS011;63667;49.046;8.468;2023-08-21T00:49:54;22.97;;;11.37;;
142;SDS011;63667;49.046;8.468;2023-08-21T00:52:22;25.20;;;12.43;;
142;SDS011;63667;49.046;8.468;2023-08-21T00:54:49;19.87;;;11.40;;
142;SDS011;63667;49.046;8.468;2023-08-21T00:57:16;22.37;;;11.80;;
142;SDS011;63667;49.046;8.468;2023-08-21T00:59:43;19.77;;;11.10;;
142;SDS011;63667;49.046;8.468;2023-08-21T01:02:11;21.47;;;11.80;;
142;SDS011;63667;49.046;8.468;2023-08-21T01:04:39;19.70;;;11.20;;
142;SDS011;63667;49.046;8.468;2023-08-21T01:07:06;25.30;;;11.17;;
142;SDS011;63667;49.046;8.468;2023-08-21T01:17:19;20.17;;;11.10;;
142;SDS011;63667;49.046;8.468;2023-08-21T01:19:48;17.10;;;10.43;;
142;SDS011;63667;49.046;8.468;2023-08-21T01:22:16;16.90;;;10.50;;
142;SDS011;63667;49.046;8.468;2023-08-21T01:24:43;16.90;;;11.60;;
142;SDS011;63667;49.046;8.468;2023-08-21T01:27:10;17.50;;;10.30;;
142;SDS011;63667;49.046;8.468;2023-08-21T01:29:39;18.40;;;10.83;;
142;SDS011;63667;49.046;8.468;2023-08-21T01:32:13;18.80;;;11.30;;
142;SDS011;63667;49.046;8.468;2023-08-21T01:34:42;17.70;;;11.20;;
142;SDS011;63667;49.046;8.468;2023-08-21T01:37:10;16.73;;;10.40;;
142;SDS011;63667;49.046;8.468;2023-08-21T01:39:37;18.60;;;10.43;;
142;SDS011;63667;49.046;8.468;2023-08-21T01:42:05;17.53;;;9.53;;
142;SDS011;63667;49.046;8.468;2023-08-21T01:44:32;15.33;;;10.30;;
142;SDS011;63667;49.046;8.468;2023-08-21T01:47:00;17.47;;;10.90;;
142;SDS011;63667;49.046;8.468;2023-08-21T01:49:27;17.90;;;10.13;;
142;SDS011;63667;49.046;8.468;2023-08-21T01:51:54;20.10;;;10.23;;
142;SDS011;63667;49.046;8.468;2023-08-21T01:54:21;16.77;;;10.00;;
142;SDS011;63667;49.046;8.468;2023-08-21T01:56:49;15.67;;;9.73;;
142;SDS011;63667;49.046;8.468;2023-08-21T01:59:16;15.90;;;9.87;;
142;SDS011;63667;49.046;8.468;2023-08-21T02:01:45;20.47;;;11.20;;
142;SDS011;63667;49.046;8.468;2023-08-21T02:04:12;17.50;;;11.10;;
142;SDS011;63667;49.046;8.468;2023-08-21T02:06:39;18.43;;;11.10;;
142;SDS011;63667;49.046;8.468;2023-08-21T02:09:07;22.73;;;10.00;;
142;SDS011;63667;49.046;8.468;2023-08-21T02:11:34;25.47;;;12.07;;
142;SDS011;63667;49.046;8.468;2023-08-21T02:14:02;19.33;;;11.73;;
142;SDS011;63667;49.046;8.468;2023-08-21T02:16:29;19.33;;;11.67;;
142;SDS011;63667;49.046;8.468;2023-08-21T02:18:56;18.93;;;11.50;;
142;SDS011;63667;49.046;8.468;2023-08-21T02:21:24;23.67;;;11.77;;
142;SDS011;63667;49.046;8.468;2023-08-21T02:23:51;15.27;;;10.37;;
142;SDS011;63667;49.046;8.468;2023-08-21T02:26:18;20.00;;;11.73;;
142;SDS011;63667;49.046;8.468;2023-08-21T02:28:46;21.07;;;11.60;;
142;SDS011;63667;49.046;8.468;2023-08-21T02:31:13;18.77;;;11.03;;
142;SDS011;63667;49.046;8.468;2023-08-21T02:33:40;18.50;;;11.10;;
142;SDS011;63667;49.046;8.468;2023-08-21T02:36:08;25.50;;;11.33;;
142;SDS011;63667;49.046;8.468;2023-08-21T02:38:35;21.70;;;11.90;;
142;SDS011;63667;49.046;8.468;2023-08-21T02:41:02;23.03;;;12.33;;
142;SDS011;63667;49.046;8.468;2023-08-21T02:43:30;20.77;;;11.77;;
142;SDS011;63667;49.046;8.468;2023-08-21T02:45:57;21.47;;;12.67;;
142;SDS011;63667;49.046;8.468;2023-08-21T02:48:24;23.20;;;13.57;;
142;SDS011;63667;49.046;8.468;2023-08-21T02:50:52;22.73;;;12.37;;
142;SDS011;63667;49.046;8.468;2023-08-21T02:53:20;20.73;;;12.50;;
142;SDS011;63667;49.046;8.468;2023-08-21T02:55:47;22.00;;;11.60;;
142;SDS011;63667;49.046;8.468;2023-08-21T02:58:15;19.93;;;11.03;;
142;SDS011;63667;49.046;8.468;2023-08-21T03:00:42;24.20;;;11.30;;
142;SDS011;63667;49.046;8.468;2023-08-21T03:03:09;21.40;;;12.23;;
142;SDS011;63667;49.046;8.468;2023-08-21T03:05:37;21.57;;;12.17;;
142;SDS011;63667;49.046;8.468;2023-08-21T03:08:04;21.83;;;11.93;;
142;SDS011;63667;49.046;8.468;2023-08-21T03:10:31;20.50;;;11.93;;
142;SDS011;63667;49.046;8.468;2023-08-21T03:13:00;17.60;;;11.40;;
142;SDS011;63667;49.046;8.468;2023-08-21T03:15:26;19.90;;;11.90;;
142;SDS011;63667;49.046;8.468;2023-08-21T03:17:55;21.17;;;13.13;;
142;SDS011;63667;49.046;8.468;2023-08-21T03:20:22;20.97;;;12.50;;
142;SDS011;63667;49.046;8.468;2023-08-21T03:22:49;23.23;;;12.07;;
142;SDS011;63667;49.046;8.468;2023-08-21T03:25:16;22.00;;;12.03;;
142;SDS011;63667;49.046;8.468;2023-08-21T03:27:44;21.80;;;11.67;;
142;SDS011;63667;49.046;8.468;2023-08-21T03:30:15;18.83;;;11.70;;
142;SDS011;63667;49.046;8.468;2023-08-21T03:32:42;21.47;;;11.13;;
142;SDS011;63667;49.046;8.468;2023-08-21T03:35:09;20.17;;;11.90;;
142;SDS011;63667;49.046;8.468;2023-08-21T03:37:37;18.90;;;11.30;;
142;SDS011;63667;49.046;8.468;2023-08-21T03:40:04;15.17;;;10.57;;
142;SDS011;63667;49.046;8.468;2023-08-21T03:42:31;22.13;;;11.60;;
142;SDS011;63667;49.046;8.468;2023-08-21T03:44:58;18.50;;;11.87;;
142;SDS011;63667;49.046;8.468;2023-08-21T03:47:26;19.00;;;10.43;;
142;SDS011;63667;49.046;8.468;2023-08-21T03:49:53;23.27;;;12.40;;
142;SDS011;63667;49.046;8.468;2023-08-21T03:52:20;17.63;;;11.43;;
142;SDS011;63667;49.046;8.468;2023-08-21T03:54:47;27.13;;;11.43;;
142;SDS011;63667;49.046;8.468;2023-08-21T03:57:14;21.70;;;12.10;;
142;SDS011;63667;49.046;8.468;2023-08-21T03:59:41;19.73;;;12.17;;
142;SDS011;63667;49.046;8.468;2023-08-21T04:02:08;22.30;;;12.60;;
142;SDS011;63667;49.046;8.468;2023-08-21T04:04:36;19.83;;;12.73;;
142;SDS011;63667;49.046;8.468;2023-08-21T04:07:03;27.40;;;13.20;;
142;SDS011;63667;49.046;8.468;2023-08-21T04:09:31;21.27;;;12.50;;
142;SDS011;63667;49.046;8.468;2023-08-21T04:11:58;21.27;;;12.87;;
142;SDS011;63667;49.046;8.468;2023-08-21T04:14:26;20.87;;;13.00;;
142;SDS011;63667;49.046;8.468;2023-08-21T04:16:52;20.57;;;11.73;;
142;SDS011;63667;49.046;8.468;2023-08-21T04:19:20;18.47;;;11.90;;
142;SDS011;63667;49.046;8.468;2023-08-21T04:21:47;23.00;;;13.00;;
142;SDS011;63667;49.046;8.468;2023-08-21T04:24:14;23.43;;;11.60;;
142;SDS011;63667;49.046;8.468;2023-08-21T04:26:41;18.57;;;12.17;;
142;SDS011;63667;49.046;8.468;2023-08-21T04:29:08;18.73;;;11.83;;
142;SDS011;63667;49.046;8.468;2023-08-21T04:31:36;20.83;;;11.63;;
142;SDS011;63667;49.046;8.468;2023-08-21T04:34:03;26.70;;;12.50;;
142;SDS011;63667;49.046;8.468;2023-08-21T04:36:31;19.33;;;12.40;;
142;SDS011;63667;49.046;8.468;2023-08-21T04:38:58;20.10;;;12.70;;
142;SDS011;63667;49.046;8.468;2023-08-21T04:41:25;27.03;;;13.00;;
142;SDS011;63667;49.046;8.468;2023-08-21T04:43:52;22.27;;;12.30;;
142;SDS011;63667;49.046;8.468;2023-08-21T04:46:19;23.63;;;12.93;;
142;SDS011;63667;49.046;8.468;2023-08-21T04:48:47;19.33;;;11.23;;
142;SDS011;63667;49.046;8.468;2023-08-21T04:51:14;20.50;;;13.10;;
142;SDS011;63667;49.046;8.468;2023-08-21T04:53:42;22.40;;;13.00;;
142;SDS011;63667;49.046;8.468;2023-08-21T04:56:09;18.53;;;11.57;;
142;SDS011;63667;49.046;8.468;2023-08-21T04:58:36;18.80;;;12.17;;
142;SDS011;63667;49.046;8.468;2023-08-21T05:01:04;21.40;;;12.60;;
142;SDS011;63667;49.046;8.468;2023-08-21T05:03:31;22.60;;;12.10;;
142;SDS011;63667;49.046;8.468;2023-08-21T05:05:58;18.40;;;11.70;;
142;SDS011;63667;49.046;8.468;2023-08-21T05:08:25;21.90;;;11.47;;
142;SDS011;63667;49.046;8.468;2023-08-21T05:10:59;25.93;;;11.37;;
142;SDS011;63667;49.046;8.468;2023-08-21T05:13:26;26.87;;;11.00;;
142;SDS011;63667;49.046;8.468;2023-08-21T05:15:54;19.17;;;12.03;;
142;SDS011;63667;49.046;8.468;2023-08-21T05:18:21;19.80;;;11.23;;
142;SDS011;63667;49.046;8.468;2023-08-21T05:20:49;19.07;;;11.77;;
142;SDS011;63667;49.046;8.468;2023-08-21T05:23:16;23.43;;;12.13;;
142;SDS011;63667;49.046;8.468;2023-08-21T05:25:43;18.50;;;11.50;;
142;SDS011;63667;49.046;8.468;2023-08-21T05:28:10;19.47;;;12.10;;
142;SDS011;63667;49.046;8.468;2023-08-21T05:30:37;23.20;;;12.20;;
142;SDS011;63667;49.046;8.468;2023-08-21T05:33:04;22.73;;;12.27;;
142;SDS011;63667;49.046;8.468;2023-08-21T05:35:35;23.23;;;12.73;;
142;SDS011;63667;49.046;8.468;2023-08-21T05:38:02;19.87;;;12.53;;
142;SDS011;63667;49.046;8.468;2023-08-21T05:40:29;21.97;;;11.67;;
142;SDS011;63667;49.046;8.468;2023-08-21T05:42:57;19.60;;;12.50;;
142;SDS011;63667;49.046;8.468;2023-08-21T05:45:24;22.43;;;12.47;;
142;SDS011;63667;49.046;8.468;2023-08-21T05:47:51;22.20;;;12.77;;
142;SDS011;63667;49.046;8.468;2023-08-21T05:50:18;22.03;;;13.53;;
142;SDS011;63667;49.046;8.468;2023-08-21T05:52:45;22.83;;;13.37;;
142;SDS011;63667;49.046;8.468;2023-08-21T05:55:12;24.90;;;13.17;;
142;SDS011;63667;49.046;8.468;2023-08-21T05:57:39;20.40;;;11.60;;
142;SDS011;63667;49.046;8.468;2023-08-21T06:00:06;23.93;;;12.03;;
142;SDS011;63667;49.046;8.468;2023-08-21T06:02:35;20.93;;;11.60;;
142;SDS011;63667;49.046;8.468;2023-08-21T06:05:02;20.83;;;11.97;;
142;SDS011;63667;49.046;8.468;2023-08-21T06:07:30;21.37;;;12.07;;
142;SDS011;63667;49.046;8.468;2023-08-21T06:09:59;27.83;;;12.70;;
142;SDS011;63667;49.046;8.468;2023-08-21T06:12:26;21.10;;;12.87;;
142;SDS011;63667;49.046;8.468;2023-08-21T06:14:54;19.27;;;11.70;;
142;SDS011;63667;49.046;8.468;2023-08-21T06:17:21;20.83;;;12.03;;
142;SDS011;63667;49.046;8.468;2023-08-21T06:19:48;24.37;;;12.23;;
142;SDS011;63667;49.046;8.468;2023-08-21T06:22:15;23.53;;;11.83;;
142;SDS011;63667;49.046;8.468;2023-08-21T06:24:42;21.50;;;12.00;;
142;SDS011;63667;49.046;8.468;2023-08-21T06:27:10;25.43;;;12.20;;
142;SDS011;63667;49.046;8.468;2023-08-21T06:29:37;18.43;;;11.90;;
142;SDS011;63667;49.046;8.468;2023-08-21T06:32:06;19.63;;;13.03;;
142;SDS011;63667;49.046;8.468;2023-08-21T06:34:33;15.63;;;11.10;;
142;SDS011;63667;49.046;8.468;2023-08-21T06:36:59;17.57;;;11.50;;
142;SDS011;63667;49.046;8.468;2023-08-21T06:39:26;24.20;;;12.67;;
142;SDS011;63667;49.046;8.468;2023-08-21T06:41:54;20.10;;;11.90;;
142;SDS011;63667;49.046;8.468;2023-08-21T06:44:21;16.90;;;11.67;;
142;SDS011;63667;49.046;8.468;2023-08-21T06:46:48;18.13;;;11.40;;
142;SDS011;63667;49.046;8.468;2023-08-21T06:49:15;21.50;;;12.23;;
142;SDS011;63667;49.046;8.468;2023-08-21T06:51:42;21.23;;;12.07;;
142;SDS011;63667;49.046;8.468;2023-08-21T06:54:09;20.33;;;11.60;;
142;SDS011;63667;49.046;8.468;2023-08-21T06:56:37;27.80;;;14.07;;
142;SDS011;63667;49.046;8.468;2023-08-21T06:59:04;23.80;;;12.93;;
142;SDS011;63667;49.046;8.468;2023-08-21T07:01:31;24.40;;;12.83;;
142;SDS011;63667;49.046;8.468;2023-08-21T07:03:59;21.20;;;12.57;;
142;SDS011;63667;49.046;8.468;2023-08-21T07:06:29;20.47;;;13.20;;
142;SDS011;63667;49.046;8.468;2023-08-21T07:08:56;21.33;;;12.83;;
142;SDS011;63667;49.046;8.468;2023-08-21T07:11:24;23.30;;;12.80;;
142;SDS011;63667;49.046;8.468;2023-08-21T07:13:51;23.70;;;14.10;;
142;SDS011;63667;49.046;8.468;2023-08-21T07:16:18;21.73;;;11.70;;
142;SDS011;63667;49.046;8.468;2023-08-21T07:18:45;26.33;;;12.47;;
142;SDS011;63667;49.046;8.468;2023-08-21T07:21:13;21.87;;;13.50;;
142;SDS011;63667;49.046;8.468;2023-08-21T07:23:39;24.63;;;12.30;;
142;SDS011;63667;49.046;8.468;2023-08-21T07:26:07;25.10;;;11.77;;
142;SDS011;63667;49.046;8.468;2023-08-21T07:28:34;23.23;;;13.10;;
142;SDS011;63667;49.046;8.468;2023-08-21T07:31:01;18.07;;;11.80;;
142;SDS011;63667;49.046;8.468;2023-08-21T07:33:29;19.67;;;11.57;;
142;SDS011;63667;49.046;8.468;2023-08-21T07:35:56;16.87;;;11.80;;
142;SDS011;63667;49.046;8.468;2023-08-21T07:38:23;25.40;;;12.70;;
142;SDS011;63667;49.046;8.468;2023-08-21T07:40:51;19.93;;;11.93;;
142;SDS011;63667;49.046;8.468;2023-08-21T07:43:21;24.23;;;12.00;;
142;SDS011;63667;49.046;8.468;2023-08-21T07:45:48;25.67;;;12.87;;
142;SDS011;63667;49.046;8.468;2023-08-21T07:48:15;19.33;;;11.00;;
142;SDS011;63667;49.046;8.468;2023-08-21T07:50:49;19.00;;;11.00;;
142;SDS011;63667;49.046;8.468;2023-08-21T07:53:16;19.73;;;11.37;;
142;SDS011;63667;49.046;8.468;2023-08-21T07:55:44;20.73;;;11.83;;
142;SDS011;63667;49.046;8.468;2023-08-21T07:58:11;23.73;;;11.53;;
142;SDS011;63667;49.046;8.468;2023-08-21T08:00:39;21.77;;;11.07;;
142;SDS011;63667;49.046;8.468;2023-08-21T08:03:08;13.80;;;10.57;;
142;SDS011;63667;49.046;8.468;2023-08-21T08:05:36;18.87;;;11.53;;
142;SDS011;63667;49.046;8.468;2023-08-21T08:08:04;14.53;;;10.00;;
142;SDS011;63667;49.046;8.468;2023-08-21T08:10:32;15.40;;;10.57;;
142;SDS011;63667;49.046;8.468;2023-08-21T08:12:59;17.47;;;11.40;;
142;SDS011;63667;49.046;8.468;2023-08-21T08:15:26;15.40;;;10.40;;
142;SDS011;63667;49.046;8.468;2023-08-21T08:17:54;18.00;;;11.00;;
142;SDS011;63667;49.046;8.468;2023-08-21T08:20:21;15.43;;;9.97;;
142;SDS011;63667;49.046;8.468;2023-08-21T08:22:48;16.00;;;10.20;;
142;SDS011;63667;49.046;8.468;2023-08-21T08:25:15;15.80;;;10.13;;
142;SDS011;63667;49.046;8.468;2023-08-21T08:27:43;21.30;;;9.93;;
142;SDS011;63667;49.046;8.468;2023-08-21T08:30:10;17.23;;;9.70;;
142;SDS011;63667;49.046;8.468;2023-08-21T08:32:41;18.23;;;10.47;;
142;SDS011;63667;49.046;8.468;2023-08-21T08:35:12;19.40;;;12.03;;
142;SDS011;63667;49.046;8.468;2023-08-21T08:37:42;14.03;;;10.03;;
142;SDS011;63667;49.046;8.468;2023-08-21T08:40:10;13.83;;;9.37;;
142;SDS011;63667;49.046;8.468;2023-08-21T08:42:37;14.80;;;10.17;;
142;SDS011;63667;49.046;8.468;2023-08-21T08:45:05;17.77;;;9.93;;
142;SDS011;63667;49.046;8.468;2023-08-21T08:47:32;17.03;;;9.47;;
142;SDS011;63667;49.046;8.468;2023-08-21T08:50:04;14.00;;;9.77;;
142;SDS011;63667;49.046;8.468;2023-08-21T08:52:47;14.03;;;9.20;;
142;SDS011;63667;49.046;8.468;2023-08-21T08:55:14;14.93;;;9.37;;
142;SDS011;63667;49.046;8.468;2023-08-21T08:57:42;17.90;;;10.47;;
142;SDS011;63667;49.046;8.468;2023-08-21T09:00:09;16.27;;;10.10;;
142;SDS011;63667;49.046;8.468;2023-08-21T09:02:40;13.33;;;9.50;;
142;SDS011;63667;49.046;8.468;2023-08-21T09:05:07;13.60;;;10.07;;
142;SDS011;63667;49.046;8.468;2023-08-21T09:07:36;15.10;;;9.97;;
142;SDS011;63667;49.046;8.468;2023-08-21T09:10:03;29.67;;;10.50;;
142;SDS011;63667;49.046;8.468;2023-08-21T09:12:33;17.20;;;9.53;;
142;SDS011;63667;49.046;8.468;2023-08-21T09:15:00;20.53;;;10.80;;
142;SDS011;63667;49.046;8.468;2023-08-21T09:17:34;15.53;;;9.90;;
142;SDS011;63667;49.046;8.468;2023-08-21T09:20:04;17.03;;;10.13;;
142;SDS011;63667;49.046;8.468;2023-08-21T09:22:33;18.30;;;11.47;;
142;SDS011;63667;49.046;8.468;2023-08-21T09:25:03;17.83;;;9.77;;
142;SDS011;63667;49.046;8.468;2023-08-21T09:27:53;17.67;;;10.80;;
142;SDS011;63667;49.046;8.468;2023-08-21T09:30:22;13.87;;;10.30;;
142;SDS011;63667;49.046;8.468;2023-08-21T09:35:19;18.00;;;11.37;;
142;SDS011;63667;49.046;8.468;2023-08-21T09:37:47;14.00;;;10.63;;
142;SDS011;63667;49.046;8.468;2023-08-21T09:40:15;20.43;;;9.90;;
142;SDS011;63667;49.046;8.468;2023-08-21T09:42:42;20.90;;;10.63;;
142;SDS011;63667;49.046;8.468;2023-08-21T09:45:09;15.10;;;10.50;;
142;SDS011;63667;49.046;8.468;2023-08-21T09:47:36;16.10;;;9.97;;
142;SDS011;63667;49.046;8.468;2023-08-21T09:50:05;23.73;;;10.20;;
142;SDS011;63667;49.046;8.468;2023-08-21T09:52:33;13.70;;;10.20;;
142;SDS011;63667;49.046;8.468;2023-08-21T09:55:02;15.33;;;10.43;;
142;SDS011;63667;49.046;8.468;2023-08-21T09:57:31;15.73;;;10.53;;
142;SDS011;63667;49.046;8.468;2023-08-21T09:59:58;16.60;;;10.20;;
142;SDS011;63667;49.046;8.468;2023-08-21T10:02:25;16.57;;;9.67;;
142;SDS011;63667;49.046;8.468;2023-08-21T10:04:53;19.03;;;9.70;;
142;SDS011;63667;49.046;8.468;2023-08-21T10:07:21;12.93;;;8.90;;
142;SDS011;63667;49.046;8.468;2023-08-21T10:09:51;16.53;;;9.90;;
142;SDS011;63667;49.046;8.468;2023-08-21T10:12:19;19.43;;;10.47;;
142;SDS011;63667;49.046;8.468;2023-08-21T10:14:47;15.07;;;9.47;;
142;SDS011;63667;49.046;8.468;2023-08-21T10:17:15;12.00;;;9.40;;
142;SDS011;63667;49.046;8.468;2023-08-21T10:19:43;14.60;;;9.20;;
142;SDS011;63667;49.046;8.468;2023-08-21T10:22:38;10.10;;;7.80;;
142;SDS011;63667;49.046;8.468;2023-08-21T10:25:03;14.33;;;8.73;;
142;SDS011;63667;49.046;8.468;2023-08-21T10:27:32;10.50;;;7.87;;
142;SDS011;63667;49.046;8.468;2023-08-21T10:30:00;9.20;;;7.90;;
142;SDS011;63667;49.046;8.468;2023-08-21T10:32:43;10.07;;;8.10;;
142;SDS011;63667;49.046;8.468;2023-08-21T10:35:14;11.60;;;8.00;;
142;SDS011;63667;49.046;8.468;2023-08-21T10:40:27;9.40;;;7.43;;
142;SDS011;63667;49.046;8.468;2023-08-21T10:42:54;11.30;;;8.30;;
142;SDS011;63667;49.046;8.468;2023-08-21T10:45:22;12.63;;;7.10;;
142;SDS011;63667;49.046;8.468;2023-08-21T10:47:50;11.50;;;7.93;;
142;SDS011;63667;49.046;8.468;2023-08-21T10:50:16;7.83;;;7.10;;
142;SDS011;63667;49.046;8.468;2023-08-21T10:52:47;10.83;;;7.17;;
142;SDS011;63667;49.046;8.468;2023-08-21T10:55:15;7.53;;;7.07;;
142;SDS011;63667;49.046;8.468;2023-08-21T10:57:46;10.48;;;7.25;;
142;SDS011;63667;49.046;8.468;2023-08-21T11:00:14;10.98;;;6.50;;
142;SDS011;63667;49.046;8.468;2023-08-21T11:02:43;7.95;;;7.00;;
142;SDS011;63667;49.046;8.468;2023-08-21T11:05:11;9.23;;;7.13;;
142;SDS011;63667;49.046;8.468;2023-08-21T11:10:08;6.60;;;6.20;;
142;SDS011;63667;49.046;8.468;2023-08-21T11:12:36;6.72;;;6.32;;
142;SDS011;63667;49.046;8.468;2023-08-21T11:15:04;7.45;;;6.43;;
142;SDS011;63667;49.046;8.468;2023-08-21T11:17:33;12.70;;;6.57;;
142;SDS011;63667;49.046;8.468;2023-08-21T11:20:01;7.50;;;5.85;;
142;SDS011;63667;49.046;8.468;2023-08-21T11:22:31;8.48;;;6.20;;
142;SDS011;63667;49.046;8.468;2023-08-21T11:24:59;12.30;;;5.50;;
142;SDS011;63667;49.046;8.468;2023-08-21T11:27:26;11.75;;;5.78;;
142;SDS011;63667;49.046;8.468;2023-08-21T11:29:54;8.43;;;5.80;;
142;SDS011;63667;49.046;8.468;2023-08-21T11:32:22;13.63;;;5.90;;
142;SDS011;63667;49.046;8.468;2023-08-21T11:34:53;6.68;;;6.20;;
142;SDS011;63667;49.046;8.468;2023-08-21T11:37:21;7.40;;;6.50;;
142;SDS011;63667;49.046;8.468;2023-08-21T11:39:53;10.60;;;6.40;;
142;SDS011;63667;49.046;8.468;2023-08-21T11:42:21;11.23;;;6.85;;
142;SDS011;63667;49.046;8.468;2023-08-21T11:44:50;8.10;;;6.03;;
142;SDS011;63667;49.046;8.468;2023-08-21T11:47:18;6.75;;;6.35;;
142;SDS011;63667;49.046;8.468;2023-08-21T11:49:46;8.68;;;6.10;;
142;SDS011;63667;49.046;8.468;2023-08-21T11:52:21;8.18;;;6.88;;
142;SDS011;63667;49.046;8.468;2023-08-21T11:54:51;10.18;;;6.90;;
142;SDS011;63667;49.046;8.468;2023-08-21T11:57:19;11.60;;;7.05;;
142;SDS011;63667;49.046;8.468;2023-08-21T12:00:04;9.95;;;7.32;;
142;SDS011;63667;49.046;8.468;2023-08-21T12:02:37;7.50;;;7.10;;
142;SDS011;63667;49.046;8.468;2023-08-21T12:05:05;9.40;;;6.82;;
142;SDS011;63667;49.046;8.468;2023-08-21T12:07:34;19.17;;;6.68;;
142;SDS011;63667;49.046;8.468;2023-08-21T12:10:01;11.35;;;7.28;;
142;SDS011;63667;49.046;8.468;2023-08-21T12:12:29;9.45;;;7.13;;
142;SDS011;63667;49.046;8.468;2023-08-21T12:14:56;6.85;;;6.45;;
142;SDS011;63667;49.046;8.468;2023-08-21T12:17:23;9.30;;;7.25;;
142;SDS011;63667;49.046;8.468;2023-08-21T12:19:50;11.50;;;6.78;;
142;SDS011;63667;49.046;8.468;2023-08-21T12:22:17;10.05;;;6.00;;
142;SDS011;63667;49.046;8.468;2023-08-21T12:24:45;10.73;;;7.60;;
142;SDS011;63667;49.046;8.468;2023-08-21T12:27:13;11.05;;;6.65;;
142;SDS011;63667;49.046;8.468;2023-08-21T12:29:40;7.20;;;6.60;;
142;SDS011;63667;49.046;8.468;2023-08-21T12:32:07;9.93;;;6.18;;
142;SDS011;63667;49.046;8.468;2023-08-21T12:34:34;9.18;;;6.43;;
142;SDS011;63667;49.046;8.468;2023-08-21T12:37:01;10.70;;;6.93;;
142;SDS011;63667;49.046;8.468;2023-08-21T12:39:29;7.85;;;6.75;;
142;SDS011;63667;49.046;8.468;2023-08-21T12:41:56;10.77;;;7.28;;
142;SDS011;63667;49.046;8.468;2023-08-21T12:44:24;8.50;;;7.05;;
142;SDS011;63667;49.046;8.468;2023-08-21T12:46:51;16.38;;;7.78;;
142;SDS011;63667;49.046;8.468;2023-08-21T12:49:18;7.45;;;7.05;;
142;SDS011;63667;49.046;8.468;2023-08-21T12:51:46;10.27;;;7.10;;
142;SDS011;63667;49.046;8.468;2023-08-21T12:54:12;7.38;;;7.03;;
142;SDS011;63667;49.046;8.468;2023-08-21T12:56:40;7.43;;;7.03;;
142;SDS011;63667;49.046;8.468;2023-08-21T12:59:07;7.57;;;7.22;;
142;SDS011;63667;49.046;8.468;2023-08-21T13:01:34;7.40;;;7.00;;
142;SDS011;63667;49.046;8.468;2023-08-21T13:04:03;8.32;;;7.40;;
142;SDS011;63667;49.046;8.468;2023-08-21T13:06:31;7.30;;;6.93;;
142;SDS011;63667;49.046;8.468;2023-08-21T13:08:58;7.93;;;7.13;;
142;SDS011;63667;49.046;8.468;2023-08-21T13:11:26;7.70;;;6.90;;
142;SDS011;63667;49.046;8.468;2023-08-21T13:13:52;8.98;;;6.57;;
142;SDS011;63667;49.046;8.468;2023-08-21T13:16:19;7.88;;;7.47;;
142;SDS011;63667;49.046;8.468;2023-08-21T13:18:45;8.13;;;7.30;;
142;SDS011;63667;49.046;8.468;2023-08-21T13:21:12;7.32;;;6.95;;
142;SDS011;63667;49.046;8.468;2023-08-21T13:23:38;11.63;;;7.43;;
142;SDS011;63667;49.046;8.468;2023-08-21T13:26:05;10.82;;;7.63;;
142;SDS011;63667;49.046;8.468;2023-08-21T13:28:31;13.17;;;7.77;;
142;SDS011;63667;49.046;8.468;2023-08-21T13:30:59;8.20;;;7.80;;
142;SDS011;63667;49.046;8.468;2023-08-21T13:33:25;9.17;;;7.63;;
142;SDS011;63667;49.046;8.468;2023-08-21T13:35:52;11.63;;;7.90;;
142;SDS011;63667;49.046;8.468;2023-08-21T13:38:18;10.93;;;7.55;;
142;SDS011;63667;49.046;8.468;2023-08-21T13:40:45;9.18;;;7.88;;
142;SDS011;63667;49.046;8.468;2023-08-21T13:43:11;15.55;;;7.65;;
142;SDS011;63667;49.046;8.468;2023-08-21T13:45:38;17.73;;;7.95;;
142;SDS011;63667;49.046;8.468;2023-08-21T13:48:08;8.65;;;6.50;;
142;SDS011;63667;49.046;8.468;2023-08-21T13:50:34;12.27;;;7.03;;
142;SDS011;63667;49.046;8.468;2023-08-21T13:53:01;6.70;;;6.25;;
142;SDS011;63667;49.046;8.468;2023-08-21T13:55:27;6.68;;;6.28;;
142;SDS011;63667;49.046;8.468;2023-08-21T13:57:54;11.35;;;6.63;;
142;SDS011;63667;49.046;8.468;2023-08-21T14:00:20;6.88;;;6.47;;
142;SDS011;63667;49.046;8.468;2023-08-21T14:02:47;6.65;;;6.25;;
142;SDS011;63667;49.046;8.468;2023-08-21T14:05:14;9.15;;;6.07;;
142;SDS011;63667;49.046;8.468;2023-08-21T14:07:40;7.15;;;6.75;;
142;SDS011;63667;49.046;8.468;2023-08-21T14:10:07;9.68;;;7.18;;
142;SDS011;63667;49.046;8.468;2023-08-21T14:12:33;7.32;;;6.20;;
142;SDS011;63667;49.046;8.468;2023-08-21T14:15:00;9.18;;;6.88;;
142;SDS011;63667;49.046;8.468;2023-08-21T14:17:26;6.60;;;6.20;;
142;SDS011;63667;49.046;8.468;2023-08-21T14:19:53;11.85;;;5.82;;
142;SDS011;63667;49.046;8.468;2023-08-21T14:22:19;6.60;;;5.60;;
142;SDS011;63667;49.046;8.468;2023-08-21T14:24:46;7.03;;;5.25;;
142;SDS011;63667;49.046;8.468;2023-08-21T14:27:12;7.45;;;5.65;;
142;SDS011;63667;49.046;8.468;2023-08-21T14:29:39;5.47;;;4.90;;
142;SDS011;63667;49.046;8.468;2023-08-21T14:32:05;9.75;;;6.10;;
142;SDS011;63667;49.046;8.468;2023-08-21T14:34:32;7.45;;;5.47;;
142;SDS011;63667;49.046;8.468;2023-08-21T14:36:58;8.73;;;5.90;;
142;SDS011;63667;49.046;8.468;2023-08-21T14:39:25;13.68;;;6.07;;
142;SDS011;63667;49.046;8.468;2023-08-21T14:41:54;5.88;;;5.53;;
142;SDS011;63667;49.046;8.468;2023-08-21T14:44:21;5.95;;;5.65;;
142;SDS011;63667;49.046;8.468;2023-08-21T14:46:48;6.43;;;6.03;;
142;SDS011;63667;49.046;8.468;2023-08-21T14:49:14;8.55;;;5.20;;
142;SDS011;63667;49.046;8.468;2023-08-21T14:51:41;6.90;;;6.53;;
142;SDS011;63667;49.046;8.468;2023-08-21T14:54:07;11.90;;;6.43;;
142;SDS011;63667;49.046;8.468;2023-08-21T14:56:34;6.45;;;6.03;;
142;SDS011;63667;49.046;8.468;2023-08-21T14:59:00;8.65;;;6.45;;
142;SDS011;63667;49.046;8.468;2023-08-21T15:01:27;8.20;;;6.30;;
142;SDS011;63667;49.046;8.468;2023-08-21T15:03:53;6.55;;;6.07;;
142;SDS011;63667;49.046;8.468;2023-08-21T15:06:20;7.32;;;6.50;;
142;SDS011;63667;49.046;8.468;2023-08-21T15:08:46;7.55;;;6.30;;
142;SDS011;63667;49.046;8.468;2023-08-21T15:11:13;10.00;;;6.40;;
142;SDS011;63667;49.046;8.468;2023-08-21T15:13:39;6.57;;;6.15;;